createdAt,value
2022-08-16T00:01:11.587Z,66.63
2022-08-16T00:03:39.144Z,67.17
2022-08-16T00:06:07.822Z,67.10
2022-08-16T00:08:37.639Z,66.58
2022-08-16T00:11:15.478Z,66.44
2022-08-16T00:13:54.360Z,66.50
2022-08-16T00:17:00.905Z,66.53
2022-08-16T00:19:16.462Z,66.62
2022-08-16T00:21:43.758Z,66.74
2022-08-16T00:24:11.589Z,66.89
2022-08-16T00:26:44.042Z,66.29
2022-08-16T00:29:16.259Z,66.53
2022-08-16T00:31:58.792Z,66.46
2022-08-16T00:34:44.988Z,66.46
2022-08-16T00:37:17.210Z,66.59
2022-08-16T00:39:47.286Z,66.54
2022-08-16T00:42:29.651Z,67.13
2022-08-16T00:45:06.371Z,66.89
2022-08-16T00:47:35.967Z,66.65
2022-08-16T00:50:05.188Z,66.38
2022-08-16T00:52:50.420Z,66.53
2022-08-16T00:55:17.921Z,66.11
2022-08-16T00:57:58.621Z,66.01
2022-08-16T01:00:29.275Z,66.21
2022-08-16T01:02:58.861Z,65.90
2022-08-16T01:05:25.636Z,65.32
2022-08-16T01:07:54.166Z,65.79
2022-08-16T01:10:32.035Z,65.98
2022-08-16T01:13:07.038Z,65.78
2022-08-16T01:15:37.594Z,65.78
2022-08-16T01:18:39.023Z,65.65
2022-08-16T01:21:22.225Z,65.44
2022-08-16T01:24:01.303Z,65.61
2022-08-16T01:26:35.571Z,65.65
2022-08-16T01:29:05.592Z,65.69
2022-08-16T01:31:37.610Z,65.72
2022-08-16T01:34:22.985Z,65.65
2022-08-16T01:37:09.358Z,65.37
2022-08-16T01:39:36.787Z,65.53
2022-08-16T01:42:12.126Z,65.32
2022-08-16T01:44:40.939Z,65.19
2022-08-16T01:47:08.117Z,65.15
2022-08-16T01:49:43.676Z,65.21
2022-08-16T01:52:27.949Z,65.16
2022-08-16T01:54:57.748Z,65.05
2022-08-16T01:57:24.768Z,64.88
2022-08-16T01:59:54.464Z,64.68
2022-08-16T02:02:27.192Z,64.66
2022-08-16T02:04:57.552Z,64.39
2022-08-16T02:07:24.510Z,64.63
2022-08-16T02:09:57.007Z,64.57
2022-08-16T02:12:43.600Z,64.64
2022-08-16T02:15:25.234Z,64.56
2022-08-16T02:17:53.391Z,64.47
2022-08-16T02:20:26.290Z,64.50
2022-08-16T02:22:55.576Z,64.52
2022-08-16T02:25:22.976Z,64.63
2022-08-16T02:27:51.482Z,64.77
2022-08-16T02:30:37.171Z,64.01
2022-08-16T02:33:10.768Z,64.34
2022-08-16T02:35:49.935Z,64.34
2022-08-16T02:38:22.334Z,64.43
2022-08-16T02:40:49.035Z,64.20
2022-08-16T02:43:16.142Z,63.76
2022-08-16T02:45:42.864Z,63.77
2022-08-16T02:48:30.551Z,64.02
2022-08-16T02:51:06.398Z,64.23
2022-08-16T02:53:40.995Z,64.35
2022-08-16T02:56:12.362Z,63.76
2022-08-16T02:58:44.110Z,63.38
2022-08-16T03:01:24.007Z,63.10
2022-08-16T03:04:41.105Z,62.90
2022-08-16T03:06:43.239Z,62.94
2022-08-16T03:09:13.793Z,63.15
2022-08-16T03:11:42.198Z,63.62
2022-08-16T03:14:09.108Z,63.56
2022-08-16T03:16:42.219Z,63.22
2022-08-16T03:19:25.902Z,63.31
2022-08-16T03:22:12.560Z,63.09
2022-08-16T03:24:46.429Z,63.23
2022-08-16T03:27:13.506Z,63.43
2022-08-16T03:29:40.473Z,63.00
2022-08-16T03:32:21.473Z,62.87
2022-08-16T03:34:49.917Z,63.19
2022-08-16T03:37:17.190Z,63.12
2022-08-16T03:39:44.194Z,63.13
2022-08-16T03:42:10.850Z,63.01
2022-08-16T03:44:43.364Z,62.74
2022-08-16T03:47:19.023Z,62.80
2022-08-16T03:49:51.783Z,62.65
2022-08-16T03:52:23.370Z,62.46
2022-08-16T03:54:53.371Z,62.91
2022-08-16T03:57:24.794Z,63.29
2022-08-16T03:59:59.251Z,62.55
2022-08-16T04:02:31.627Z,62.08
2022-08-16T04:04:58.689Z,62.06
2022-08-16T04:07:25.431Z,62.22
2022-08-16T04:09:52.306Z,61.93
2022-08-16T04:12:53.795Z,61.83
2022-08-16T04:15:08.713Z,61.78
2022-08-16T04:17:36.886Z,61.83
2022-08-16T04:20:29.498Z,62.08
2022-08-16T04:22:56.109Z,62.42
2022-08-16T04:25:23.654Z,62.10
2022-08-16T04:27:55.716Z,62.09
2022-08-16T04:30:31.861Z,62.25
2022-08-16T04:32:59.571Z,61.75
2022-08-16T04:35:26.443Z,61.66
2022-08-16T04:38:00.709Z,61.76
2022-08-16T04:40:38.462Z,61.87
2022-08-16T04:43:05.768Z,62.16
2022-08-16T04:45:35.724Z,61.98
2022-08-16T04:48:03.789Z,61.92
2022-08-16T04:50:30.731Z,62.17
2022-08-16T04:52:59.091Z,61.86
2022-08-16T04:55:37.720Z,62.04
2022-08-16T04:58:45.254Z,62.29
2022-08-16T05:00:52.803Z,62.62
2022-08-16T05:03:20.572Z,62.68
2022-08-16T05:05:55.799Z,62.72
2022-08-16T05:08:31.083Z,62.01
2022-08-16T05:11:05.789Z,61.83
2022-08-16T05:13:41.092Z,61.71
2022-08-16T05:16:20.313Z,61.78
2022-08-16T05:18:49.740Z,61.76
2022-08-16T05:21:16.880Z,61.69
2022-08-16T05:23:56.031Z,61.83
2022-08-16T05:26:28.298Z,61.91
2022-08-16T05:28:56.849Z,62.10
2022-08-16T05:31:29.299Z,62.43
2022-08-16T05:34:00.571Z,62.88
2022-08-16T05:36:34.150Z,63.16
2022-08-16T05:39:08.840Z,63.48
2022-08-16T05:41:45.361Z,63.11
2022-08-16T05:44:23.684Z,63.13
2022-08-16T05:46:56.530Z,63.97
2022-08-16T05:49:24.410Z,64.19
2022-08-16T05:51:52.976Z,64.46
2022-08-16T05:54:25.028Z,64.32
2022-08-16T05:56:52.981Z,64.61
2022-08-16T05:59:20.070Z,64.63
2022-08-16T06:01:50.676Z,64.11
2022-08-16T06:04:35.655Z,64.23
2022-08-16T06:07:08.234Z,64.79
2022-08-16T06:09:42.962Z,64.07
2022-08-16T06:12:12.638Z,64.42
2022-08-16T06:14:57.259Z,65.03
2022-08-16T06:17:25.523Z,65.36
2022-08-16T06:20:14.072Z,65.12
2022-08-16T06:22:40.705Z,65.28
2022-08-16T06:25:12.909Z,64.58
2022-08-16T06:27:42.073Z,64.51
2022-08-16T06:30:24.414Z,65.10
2022-08-16T06:32:55.664Z,64.75
2022-08-16T06:35:22.437Z,64.86
2022-08-16T06:37:51.385Z,65.01
2022-08-16T06:40:19.649Z,64.91
2022-08-16T06:42:47.668Z,64.58
2022-08-16T06:45:14.951Z,64.65
2022-08-16T06:47:53.656Z,64.62
2022-08-16T06:50:28.947Z,64.87
2022-08-16T06:53:01.165Z,65.04
2022-08-16T06:55:35.371Z,64.36
2022-08-16T06:58:08.132Z,64.61
2022-08-16T07:00:37.757Z,64.76
2022-08-16T07:03:27.501Z,64.78
2022-08-16T07:05:53.054Z,65.12
2022-08-16T07:08:20.800Z,64.79
2022-08-16T07:10:47.467Z,64.53
2022-08-16T07:13:19.737Z,64.26
2022-08-16T07:16:03.193Z,64.31
2022-08-16T07:18:29.876Z,63.76
2022-08-16T07:21:01.826Z,64.01
2022-08-16T07:23:37.214Z,63.81
2022-08-16T07:26:08.796Z,63.58
2022-08-16T07:28:36.144Z,63.44
2022-08-16T07:31:03.374Z,63.58
2022-08-16T07:33:53.610Z,63.42
2022-08-16T07:36:22.722Z,63.61
2022-08-16T07:38:50.210Z,63.83
2022-08-16T07:41:17.490Z,63.79
2022-08-16T07:43:46.200Z,63.70
2022-08-16T07:46:38.077Z,64.07
2022-08-16T07:49:03.745Z,64.34
2022-08-16T07:51:37.164Z,64.09
2022-08-16T07:54:10.007Z,64.56
2022-08-16T07:56:38.081Z,64.27
2022-08-16T07:59:05.902Z,64.30
2022-08-16T08:01:32.963Z,64.50
2022-08-16T08:04:02.848Z,64.40
2022-08-16T08:06:31.365Z,64.33
2022-08-16T08:08:59.343Z,64.57
2022-08-16T08:11:28.099Z,64.52
2022-08-16T08:13:56.692Z,64.12
2022-08-16T08:16:30.481Z,64.79
2022-08-16T08:19:00.439Z,64.01
2022-08-16T08:22:01.380Z,63.73
2022-08-16T08:24:17.658Z,63.48
2022-08-16T08:26:44.821Z,63.11
2022-08-16T08:29:22.958Z,63.57
2022-08-16T08:31:52.832Z,63.39
2022-08-16T08:34:21.135Z,62.91
2022-08-16T08:36:50.139Z,62.99
2022-08-16T08:39:21.625Z,62.83
2022-08-16T08:41:49.612Z,63.05
2022-08-16T08:44:28.291Z,62.86
2022-08-16T08:47:00.319Z,62.66
2022-08-16T08:49:47.059Z,62.85
2022-08-16T08:52:33.770Z,62.47
2022-08-16T08:55:10.459Z,62.50
2022-08-16T08:57:40.751Z,62.32
2022-08-16T09:00:13.025Z,62.55
2022-08-16T09:02:42.595Z,62.45
2022-08-16T09:05:15.753Z,62.03
2022-08-16T09:08:00.941Z,62.21
2022-08-16T09:10:30.469Z,62.30
2022-08-16T09:12:58.663Z,62.08
2022-08-16T09:15:31.146Z,62.74
2022-08-16T09:18:00.239Z,62.02
2022-08-16T09:20:30.428Z,62.02
2022-08-16T09:22:58.808Z,61.91
2022-08-16T09:25:34.291Z,61.75
2022-08-16T09:28:08.896Z,61.69
2022-08-16T09:30:44.169Z,61.86
2022-08-16T09:33:14.563Z,61.75
2022-08-16T09:35:42.610Z,61.60
2022-08-16T09:38:12.319Z,61.48
2022-08-16T09:40:43.169Z,61.53
2022-08-16T09:43:44.742Z,61.48
2022-08-16T09:45:59.107Z,61.35
2022-08-16T09:48:44.434Z,61.57
2022-08-16T09:51:12.934Z,61.84
2022-08-16T09:53:39.812Z,61.05
2022-08-16T09:56:32.503Z,61.61
2022-08-16T09:59:05.743Z,61.14
2022-08-16T10:01:43.597Z,61.13
2022-08-16T10:04:31.411Z,61.26
2022-08-16T10:09:44.781Z,60.90
2022-08-16T10:12:42.411Z,60.72
2022-08-16T10:15:15.674Z,60.21
2022-08-16T10:17:43.652Z,60.69
2022-08-16T10:20:18.345Z,60.42
2022-08-16T10:22:46.011Z,60.05
2022-08-16T10:27:03.678Z,59.91
2022-08-16T10:28:27.894Z,59.48
2022-08-16T10:30:47.432Z,59.74
2022-08-16T10:33:23.414Z,59.78
2022-08-16T10:35:50.249Z,59.25
2022-08-16T10:38:27.358Z,59.20
2022-08-16T10:40:54.676Z,59.05
2022-08-16T10:43:21.415Z,59.07
2022-08-16T10:46:00.851Z,59.52
2022-08-16T10:48:29.182Z,58.80
2022-08-16T10:50:58.762Z,59.14
2022-08-16T10:53:33.182Z,59.51
2022-08-16T10:56:02.733Z,59.06
2022-08-16T10:58:34.004Z,59.09
2022-08-16T11:01:25.044Z,58.79
2022-08-16T11:03:54.140Z,58.59
2022-08-16T11:06:26.943Z,58.49
2022-08-16T11:14:29.701Z,58.43
2022-08-16T11:17:02.330Z,58.59
2022-08-16T11:20:00.073Z,58.22
2022-08-16T11:22:39.293Z,57.98
2022-08-16T11:25:17.472Z,58.04
2022-08-16T11:27:57.592Z,58.35
2022-08-16T11:30:37.752Z,57.77
2022-08-16T11:33:07.096Z,58.53
2022-08-16T11:38:47.315Z,58.57
2022-08-16T11:41:09.835Z,58.04
2022-08-16T11:43:39.168Z,58.02
2022-08-16T11:46:43.236Z,58.33
2022-08-16T11:48:58.227Z,58.24
2022-08-16T11:51:24.833Z,57.34
2022-08-16T11:53:51.698Z,57.36
2022-08-16T11:56:19.817Z,57.21
2022-08-16T11:59:05.967Z,57.80
2022-08-16T12:01:55.527Z,57.34
2022-08-16T12:04:22.187Z,57.62
2022-08-16T12:06:49.396Z,57.33
2022-08-16T12:09:16.664Z,58.32
2022-08-16T12:11:44.851Z,58.16
2022-08-16T12:14:14.223Z,57.40
2022-08-16T12:16:48.696Z,57.42
2022-08-16T12:19:21.970Z,58.37
2022-08-16T12:22:00.923Z,58.60
2022-08-16T12:24:32.430Z,58.07
2022-08-16T12:26:59.995Z,58.04
2022-08-16T12:29:29.396Z,57.61
2022-08-16T12:32:00.490Z,58.10
2022-08-16T12:34:29.498Z,57.31
2022-08-16T12:36:56.465Z,58.11
2022-08-16T12:39:23.715Z,57.92
2022-08-16T12:41:56.553Z,58.30
2022-08-16T12:44:26.627Z,57.86
2022-08-16T12:47:17.078Z,57.51
2022-08-16T12:49:43.697Z,57.89
2022-08-16T12:52:33.888Z,58.17
2022-08-16T12:54:58.709Z,57.67
2022-08-16T12:57:25.575Z,57.59
2022-08-16T13:00:12.825Z,57.94
2022-08-16T13:02:54.291Z,58.16
2022-08-16T13:05:21.533Z,57.39
2022-08-16T13:07:51.324Z,58.07
2022-08-16T13:10:21.529Z,57.85
2022-08-16T13:13:06.187Z,57.49
2022-08-16T13:15:32.927Z,57.43
2022-08-16T13:18:27.543Z,56.85
2022-08-16T13:21:03.269Z,57.52
2022-08-16T13:23:29.910Z,56.98
2022-08-16T13:25:57.400Z,56.64
2022-08-16T13:28:24.189Z,57.38
2022-08-16T13:30:53.652Z,57.50
2022-08-16T13:33:36.870Z,56.81
2022-08-16T13:36:07.172Z,57.57
2022-08-16T13:38:49.197Z,56.79
2022-08-16T13:41:16.031Z,57.17
2022-08-16T13:43:43.079Z,56.13
2022-08-16T13:46:09.866Z,56.71
2022-08-16T13:48:44.419Z,56.66
2022-08-16T13:51:17.172Z,56.30
2022-08-16T13:53:54.640Z,56.26
2022-08-16T13:56:37.566Z,55.83
2022-08-16T13:59:19.311Z,55.81
2022-08-16T14:01:55.211Z,55.57
2022-08-16T14:04:26.581Z,55.22
2022-08-16T14:06:55.027Z,55.13
2022-08-16T14:09:23.430Z,54.33
2022-08-16T14:11:53.705Z,54.20
2022-08-16T14:14:29.284Z,52.56
2022-08-16T14:17:01.229Z,52.38
2022-08-16T14:19:29.712Z,51.93
2022-08-16T14:22:14.091Z,52.66
2022-08-16T14:24:47.006Z,54.10
2022-08-16T14:27:17.123Z,54.17
2022-08-16T14:29:45.000Z,54.17
2022-08-16T14:32:27.103Z,54.14
2022-08-16T14:34:59.864Z,54.61
2022-08-16T14:37:26.815Z,54.14
2022-08-16T14:39:55.135Z,54.84
2022-08-16T14:42:23.688Z,54.29
2022-08-16T14:44:52.193Z,54.32
2022-08-16T14:47:20.782Z,54.44
2022-08-16T14:49:47.362Z,53.91
2022-08-16T14:52:20.463Z,53.49
2022-08-16T14:55:04.804Z,53.74
2022-08-16T14:57:31.510Z,53.97
2022-08-16T15:00:04.733Z,54.07
2022-08-16T15:02:35.097Z,53.42
2022-08-16T15:05:04.368Z,53.54
2022-08-16T15:07:34.967Z,53.50
2022-08-16T15:10:03.609Z,53.35
2022-08-16T15:12:33.306Z,52.74
2022-08-16T15:15:04.443Z,51.37
2022-08-16T15:17:39.563Z,51.61
2022-08-16T15:20:08.824Z,51.94
2022-08-16T15:22:41.517Z,52.16
2022-08-16T15:25:17.722Z,53.11
2022-08-16T15:27:45.546Z,53.12
2022-08-16T15:30:56.676Z,53.16
2022-08-16T15:33:13.339Z,52.57
2022-08-16T15:35:40.076Z,52.74
2022-08-16T15:38:08.978Z,52.72
2022-08-16T15:40:37.148Z,53.15
2022-08-16T15:43:21.794Z,53.42
2022-08-16T15:46:12.568Z,52.93
2022-08-16T15:48:59.401Z,53.14
2022-08-16T15:51:26.015Z,52.88
2022-08-16T15:54:20.934Z,52.25
2022-08-16T15:56:43.237Z,52.57
2022-08-16T15:59:13.102Z,52.97
2022-08-16T16:01:40.508Z,52.67
2022-08-16T16:04:07.206Z,52.32
2022-08-16T16:06:35.229Z,52.77
2022-08-16T16:09:02.376Z,52.39
2022-08-16T16:11:29.033Z,52.39
2022-08-16T16:13:57.913Z,52.94
2022-08-16T16:16:24.703Z,52.50
2022-08-16T16:18:52.073Z,52.89
2022-08-16T16:21:20.341Z,52.19
2022-08-16T16:23:55.081Z,52.59
2022-08-16T16:26:26.848Z,53.04
2022-08-16T16:29:08.085Z,52.54
2022-08-16T16:31:41.583Z,52.94
2022-08-16T16:34:11.570Z,52.64
2022-08-16T16:36:39.814Z,52.14
2022-08-16T16:39:10.842Z,52.51
2022-08-16T16:41:40.145Z,53.31
2022-08-16T16:44:08.909Z,53.32
2022-08-16T16:46:42.415Z,53.43
2022-08-16T16:49:11.305Z,53.38
2022-08-16T16:51:44.713Z,53.69
2022-08-16T16:54:27.437Z,52.99
2022-08-16T16:56:56.110Z,53.06
2022-08-16T16:59:23.578Z,53.72
2022-08-16T17:01:57.547Z,53.45
2022-08-16T17:04:37.823Z,53.86
2022-08-16T17:07:10.656Z,55.09
2022-08-16T17:09:40.479Z,54.48
2022-08-16T17:12:08.851Z,54.28
2022-08-16T17:14:35.699Z,54.19
2022-08-16T17:17:08.484Z,54.06
2022-08-16T17:19:40.154Z,53.32
2022-08-16T17:22:14.141Z,54.04
2022-08-16T17:24:45.256Z,53.48
2022-08-16T17:27:18.027Z,53.65
2022-08-16T17:29:51.468Z,53.35
2022-08-16T17:32:33.983Z,52.51
2022-08-16T17:35:13.987Z,52.31
2022-08-16T17:37:51.732Z,52.65
2022-08-16T17:40:26.918Z,52.62
2022-08-16T17:43:12.561Z,53.27
2022-08-16T17:45:40.193Z,52.77
2022-08-16T17:48:06.851Z,52.78
2022-08-16T17:50:33.593Z,52.76
2022-08-16T17:53:00.757Z,53.29
2022-08-16T17:55:33.358Z,53.18
2022-08-16T17:58:00.506Z,53.51
2022-08-16T18:00:29.010Z,53.49
2022-08-16T18:03:00.270Z,53.47
2022-08-16T18:05:28.555Z,53.33
2022-08-16T18:07:55.326Z,53.84
2022-08-16T18:10:32.462Z,53.93
2022-08-16T18:13:00.830Z,53.21
2022-08-16T18:15:28.157Z,53.93
2022-08-16T18:17:54.824Z,53.82
2022-08-16T18:20:41.798Z,53.24
2022-08-16T18:23:13.858Z,53.96
2022-08-16T18:25:44.035Z,54.02
2022-08-16T18:28:11.352Z,53.68
2022-08-16T18:30:38.450Z,54.09
2022-08-16T18:33:05.161Z,54.02
2022-08-16T18:35:32.289Z,53.61
2022-08-16T18:37:58.934Z,53.58
2022-08-16T18:40:26.416Z,53.58
2022-08-16T18:43:02.271Z,53.77
2022-08-16T18:45:35.334Z,54.07
2022-08-16T18:48:04.674Z,53.75
2022-08-16T18:50:59.632Z,53.68
2022-08-16T18:53:19.719Z,53.72
2022-08-16T18:55:47.539Z,54.19
2022-08-16T18:58:14.462Z,53.80
2022-08-16T19:00:50.512Z,53.50
2022-08-16T19:03:26.232Z,53.66
2022-08-16T19:06:02.312Z,53.05
2022-08-16T19:08:29.239Z,52.92
2022-08-16T19:10:55.904Z,52.91
2022-08-16T19:13:24.539Z,52.58
2022-08-16T19:15:53.559Z,53.23
2022-08-16T19:18:20.497Z,52.67
2022-08-16T19:20:47.721Z,52.77
2022-08-16T19:23:19.892Z,52.41
2022-08-16T19:25:52.990Z,51.98
2022-08-16T19:28:51.138Z,51.88
2022-08-16T19:31:18.313Z,52.24
2022-08-16T19:33:54.200Z,52.27
2022-08-16T19:36:35.665Z,51.93
2022-08-16T19:39:06.209Z,51.80
2022-08-16T19:41:40.496Z,52.06
2022-08-16T19:44:07.839Z,51.67
2022-08-16T19:46:35.516Z,51.84
2022-08-16T19:49:02.359Z,51.50
2022-08-16T19:51:29.069Z,51.30
2022-08-16T19:53:55.791Z,51.74
2022-08-16T19:56:25.577Z,51.13
2022-08-16T19:59:17.469Z,52.17
2022-08-16T20:01:42.350Z,51.38
2022-08-16T20:04:12.306Z,52.08
2022-08-16T20:06:39.662Z,52.67
2022-08-16T20:09:06.949Z,52.11
2022-08-16T20:11:34.868Z,51.84
2022-08-16T20:14:02.516Z,51.53
2022-08-16T20:16:29.563Z,52.00
2022-08-16T20:18:56.210Z,51.91
2022-08-16T20:21:22.935Z,51.64
2022-08-16T20:23:49.609Z,51.09
2022-08-16T20:26:16.287Z,51.43
2022-08-16T20:28:53.966Z,51.79
2022-08-16T20:31:25.606Z,51.26
2022-08-16T20:33:53.275Z,51.39
2022-08-16T20:36:19.873Z,51.79
2022-08-16T20:38:47.681Z,51.72
2022-08-16T20:41:15.536Z,51.62
2022-08-16T20:43:42.251Z,51.79
2022-08-16T20:46:08.881Z,51.17
2022-08-16T20:48:35.736Z,51.86
2022-08-16T20:51:02.343Z,51.60
2022-08-16T20:53:28.946Z,51.85
2022-08-16T20:55:56.289Z,52.31
2022-08-16T20:58:22.887Z,51.88
2022-08-16T21:00:50.128Z,52.25
2022-08-16T21:03:16.858Z,52.25
2022-08-16T21:05:45.298Z,52.60
2022-08-16T21:08:50.569Z,52.48
2022-08-16T21:11:00.918Z,52.79
2022-08-16T21:13:30.673Z,52.83
2022-08-16T21:15:58.758Z,52.51
2022-08-16T21:18:25.421Z,52.55
2022-08-16T21:20:52.752Z,52.29
2022-08-16T21:23:19.825Z,52.14
2022-08-16T21:25:58.043Z,52.52
2022-08-16T21:28:39.135Z,52.33
2022-08-16T21:31:14.044Z,52.39
2022-08-16T21:33:41.011Z,52.17
2022-08-16T21:36:08.095Z,52.10
2022-08-16T21:38:34.937Z,51.97
2022-08-16T21:41:03.057Z,52.39
2022-08-16T21:43:32.705Z,52.48
2022-08-16T21:46:00.801Z,51.95
2022-08-16T21:48:35.823Z,51.88
2022-08-16T21:51:08.269Z,52.11
2022-08-16T21:53:35.815Z,52.57
2022-08-16T21:56:03.337Z,52.75
2022-08-16T21:58:30.881Z,53.00
2022-08-16T22:00:57.872Z,53.04
2022-08-16T22:03:25.065Z,52.92
2022-08-16T22:06:10.092Z,53.36
2022-08-16T22:08:50.396Z,52.66
2022-08-16T22:11:24.500Z,52.84
2022-08-16T22:13:57.811Z,52.77
2022-08-16T22:16:31.011Z,53.20
2022-08-16T22:18:58.013Z,53.46
2022-08-16T22:21:25.039Z,53.96
2022-08-16T22:23:57.953Z,53.90
2022-08-16T22:26:31.067Z,53.42
2022-08-16T22:29:00.007Z,53.32
2022-08-16T22:31:27.420Z,53.18
2022-08-16T22:33:54.110Z,53.74
2022-08-16T22:36:20.721Z,53.29
2022-08-16T22:38:56.673Z,53.48
2022-08-16T22:41:25.481Z,53.29
2022-08-16T22:43:52.653Z,53.37
2022-08-16T22:46:19.851Z,53.56
2022-08-16T22:48:50.434Z,53.57
2022-08-16T22:51:18.564Z,53.29
2022-08-16T22:53:45.186Z,53.14
2022-08-16T22:56:11.830Z,53.69
2022-08-16T22:58:38.435Z,53.64
2022-08-16T23:01:07.212Z,53.71
2022-08-16T23:03:34.191Z,53.81
2022-08-16T23:06:00.957Z,54.26
2022-08-16T23:08:35.021Z,54.28
2022-08-16T23:11:13.770Z,54.06
2022-08-16T23:13:53.320Z,54.11
2022-08-16T23:16:33.588Z,53.91
2022-08-16T23:19:11.060Z,53.84
2022-08-16T23:21:40.741Z,53.76
2022-08-16T23:24:08.418Z,53.85
2022-08-16T23:26:45.140Z,53.51
2022-08-16T23:29:24.974Z,53.67
2022-08-16T23:32:10.774Z,53.67
2022-08-16T23:37:05.051Z,53.85
2022-08-16T23:39:31.766Z,53.96
2022-08-16T23:41:58.806Z,54.26
2022-08-16T23:44:57.127Z,54.02
2022-08-16T23:47:12.117Z,54.33
2022-08-16T23:49:58.177Z,54.20
2022-08-16T23:52:53.071Z,54.48
2022-08-16T23:55:12.695Z,54.04
2022-08-16T23:57:39.315Z,53.77
